createdAt,value
2018-09-10T00:00:11.224Z,8.80
2018-09-10T00:02:39.465Z,8.40
2018-09-10T00:05:07.845Z,9.33
2018-09-10T00:07:36.103Z,9.03
2018-09-10T00:10:04.639Z,7.27
2018-09-10T00:12:32.913Z,11.60
2018-09-10T00:15:01.176Z,7.53
2018-09-10T00:17:29.442Z,9.60
2018-09-10T00:19:57.971Z,7.93
2018-09-10T00:22:26.218Z,9.90
2018-09-10T00:24:54.514Z,10.33
2018-09-10T00:27:22.768Z,8.63
2018-09-10T00:29:51.449Z,10.07
2018-09-10T00:32:19.761Z,8.43
2018-09-10T00:34:48.044Z,10.27
2018-09-10T00:37:16.334Z,8.83
2018-09-10T00:39:44.586Z,11.73
2018-09-10T00:42:12.960Z,9.17
2018-09-10T00:44:41.222Z,9.07
2018-09-10T00:47:09.475Z,10.67
2018-09-10T00:49:37.738Z,9.47
2018-09-10T00:52:05.986Z,8.87
2018-09-10T00:54:34.325Z,10.93
2018-09-10T00:57:02.581Z,8.30
2018-09-10T00:59:30.812Z,8.33
2018-09-10T01:01:59.076Z,10.37
2018-09-10T01:04:27.335Z,8.67
2018-09-10T01:06:55.771Z,10.43
2018-09-10T01:09:24.032Z,11.73
2018-09-10T01:11:52.273Z,10.60
2018-09-10T01:14:20.512Z,9.27
2018-09-10T01:16:48.823Z,10.73
2018-09-10T01:19:17.094Z,11.33
2018-09-10T01:21:47.419Z,9.77
2018-09-10T01:24:15.647Z,10.17
2018-09-10T01:26:44.534Z,11.57
2018-09-10T01:29:13.464Z,10.17
2018-09-10T01:31:41.764Z,10.27
2018-09-10T01:34:15.350Z,10.57
2018-09-10T01:36:43.647Z,12.53
2018-09-10T01:39:11.888Z,9.47
2018-09-10T01:41:40.116Z,14.47
2018-09-10T01:44:08.566Z,11.13
2018-09-10T01:46:36.876Z,9.93
2018-09-10T01:49:05.208Z,9.63
2018-09-10T01:51:33.728Z,11.20
2018-09-10T01:54:02.001Z,11.73
2018-09-10T01:56:30.251Z,11.43
2018-09-10T01:58:58.490Z,13.17
2018-09-10T02:01:28.868Z,11.90
2018-09-10T02:03:57.156Z,12.70
2018-09-10T02:06:25.510Z,11.43
2018-09-10T02:08:53.775Z,11.67
2018-09-10T02:11:22.043Z,11.67
2018-09-10T02:13:50.341Z,13.87
2018-09-10T02:16:18.571Z,11.27
2018-09-10T02:18:47.474Z,11.87
2018-09-10T02:21:16.231Z,15.23
2018-09-10T02:23:44.514Z,14.03
2018-09-10T02:26:12.773Z,17.63
2018-09-10T02:28:41.310Z,14.77
2018-09-10T02:31:09.589Z,14.93
2018-09-10T02:33:37.871Z,15.63
2018-09-10T02:36:06.365Z,13.17
2018-09-10T02:38:34.723Z,13.23
2018-09-10T02:41:02.938Z,12.27
2018-09-10T02:46:06.191Z,16.50
2018-09-10T02:48:34.475Z,14.03
2018-09-10T02:51:02.727Z,12.20
2018-09-10T02:53:30.982Z,14.43
2018-09-10T02:55:59.232Z,14.13
2018-09-10T02:58:27.510Z,12.93
2018-09-10T03:00:55.798Z,11.40
2018-09-10T03:03:24.058Z,14.93
2018-09-10T03:05:52.292Z,15.53
2018-09-10T03:08:20.616Z,11.43
2018-09-10T03:10:48.850Z,13.33
2018-09-10T03:13:17.203Z,11.13
2018-09-10T03:15:45.502Z,12.30
2018-09-10T03:18:14.146Z,14.47
2018-09-10T03:20:42.433Z,11.67
2018-09-10T03:23:10.712Z,13.33
2018-09-10T03:25:39.031Z,13.43
2018-09-10T03:28:07.346Z,12.23
2018-09-10T03:30:35.652Z,13.53
2018-09-10T03:33:05.115Z,11.47
2018-09-10T03:35:33.404Z,11.97
2018-09-10T03:38:01.775Z,12.20
2018-09-10T03:40:30.055Z,12.53
2018-09-10T03:42:58.347Z,16.80
2018-09-10T03:45:26.610Z,13.50
2018-09-10T03:47:54.875Z,14.43
2018-09-10T03:50:23.212Z,14.03
2018-09-10T03:52:51.469Z,13.27
2018-09-10T03:55:26.119Z,18.33
2018-09-10T03:57:54.385Z,12.50
2018-09-10T04:00:22.677Z,13.40
2018-09-10T04:02:50.913Z,15.20
2018-09-10T04:05:19.189Z,13.70
2018-09-10T04:07:47.585Z,11.97
2018-09-10T04:10:15.853Z,12.30
2018-09-10T04:12:44.112Z,14.10
2018-09-10T04:15:12.387Z,14.07
2018-09-10T04:17:40.636Z,14.67
2018-09-10T04:20:09.935Z,12.97
2018-09-10T04:22:38.959Z,14.80
2018-09-10T04:25:07.548Z,15.70
2018-09-10T04:27:36.595Z,13.10
2018-09-10T04:30:05.889Z,13.33
2018-09-10T04:32:34.174Z,14.03
2018-09-10T04:35:02.442Z,14.73
2018-09-10T04:37:30.665Z,15.03
2018-09-10T04:39:58.932Z,15.50
2018-09-10T04:42:27.191Z,15.83
2018-09-10T04:44:55.499Z,18.27
2018-09-10T04:47:24.363Z,18.03
2018-09-10T04:49:52.684Z,19.77
2018-09-10T04:52:20.997Z,17.27
2018-09-10T04:54:49.583Z,17.13
2018-09-10T04:57:17.887Z,16.10
2018-09-10T04:59:46.144Z,14.43
2018-09-10T05:02:14.465Z,16.67
2018-09-10T05:04:42.729Z,16.77
2018-09-10T05:07:10.987Z,14.43
2018-09-10T05:09:39.389Z,12.77
2018-09-10T05:12:07.787Z,15.00
2018-09-10T05:14:36.060Z,15.07
2018-09-10T05:17:04.315Z,13.60
2018-09-10T05:19:33.563Z,15.83
2018-09-10T05:22:01.920Z,13.37
2018-09-10T05:24:30.231Z,13.63
2018-09-10T05:26:58.474Z,14.63
2018-09-10T05:29:26.745Z,14.00
2018-09-10T05:31:54.982Z,12.87
2018-09-10T05:34:23.267Z,12.63
2018-09-10T05:36:51.511Z,14.20
2018-09-10T05:39:19.830Z,15.43
2018-09-10T05:41:48.121Z,14.17
2018-09-10T05:44:16.397Z,16.63
2018-09-10T05:46:44.761Z,14.97
2018-09-10T05:49:12.999Z,19.17
2018-09-10T05:51:41.272Z,13.60
2018-09-10T05:54:09.520Z,17.40
2018-09-10T05:56:37.786Z,17.87
2018-09-10T05:59:06.057Z,17.30
2018-09-10T06:01:34.314Z,20.50
2018-09-10T06:04:02.560Z,16.53
2018-09-10T06:06:30.820Z,16.10
2018-09-10T06:08:59.103Z,18.33
2018-09-10T06:11:29.422Z,18.37
2018-09-10T06:13:57.694Z,19.37
2018-09-10T06:16:26.564Z,17.33
2018-09-10T06:18:54.788Z,18.43
2018-09-10T06:21:23.033Z,21.40
2018-09-10T06:23:51.347Z,18.23
2018-09-10T06:26:19.646Z,20.00
2018-09-10T06:28:47.970Z,22.50
2018-09-10T06:31:16.239Z,20.03
2018-09-10T06:33:44.436Z,25.47
2018-09-10T06:36:12.676Z,22.93
2018-09-10T06:38:40.875Z,25.73
2018-09-10T06:41:09.131Z,26.37
2018-09-10T06:43:37.325Z,25.13
2018-09-10T06:46:05.555Z,23.40
2018-09-10T06:48:35.551Z,26.13
2018-09-10T06:51:05.246Z,27.27
2018-09-10T06:53:33.620Z,24.50
2018-09-10T06:56:02.844Z,25.17
2018-09-10T06:58:31.046Z,23.83
2018-09-10T07:00:59.307Z,23.43
2018-09-10T07:03:27.619Z,26.20
2018-09-10T07:05:55.988Z,22.73
2018-09-10T07:08:24.204Z,21.50
2018-09-10T07:10:52.909Z,23.40
2018-09-10T07:13:21.172Z,24.40
2018-09-10T07:15:49.375Z,24.33
2018-09-10T07:18:17.584Z,24.90
2018-09-10T07:20:45.790Z,22.97
2018-09-10T07:23:14.021Z,22.87
2018-09-10T07:25:42.312Z,22.07
2018-09-10T07:28:10.511Z,22.37
2018-09-10T07:30:38.745Z,21.77
2018-09-10T07:33:07.138Z,29.20
2018-09-10T07:35:35.652Z,23.43
2018-09-10T07:38:04.584Z,21.57
2018-09-10T07:40:33.032Z,22.40
2018-09-10T07:43:01.289Z,20.83
2018-09-10T07:45:29.566Z,23.57
2018-09-10T07:47:57.830Z,21.50
2018-09-10T07:50:26.104Z,22.20
2018-09-10T07:52:54.361Z,20.47
2018-09-10T07:55:22.645Z,19.50
2018-09-10T07:57:50.952Z,18.53
2018-09-10T08:00:19.207Z,18.87
2018-09-10T08:02:47.502Z,17.70
2018-09-10T08:05:19.839Z,16.23
2018-09-10T08:07:48.135Z,16.90
2018-09-10T08:10:16.460Z,16.37
2018-09-10T08:12:44.865Z,16.37
2018-09-10T08:15:14.196Z,16.23
2018-09-10T08:17:42.664Z,13.47
2018-09-10T08:20:11.037Z,16.00
2018-09-10T08:22:39.316Z,12.90
2018-09-10T08:25:07.691Z,12.43
2018-09-10T08:27:36.031Z,12.83
2018-09-10T08:30:04.438Z,12.17
2018-09-10T08:32:32.704Z,12.13
2018-09-10T08:35:00.940Z,11.27
2018-09-10T08:37:29.197Z,12.27
2018-09-10T08:39:57.929Z,13.30
2018-09-10T08:42:26.168Z,11.60
2018-09-10T08:44:54.412Z,11.57
2018-09-10T08:47:22.617Z,12.30
2018-09-10T08:49:50.819Z,14.40
2018-09-10T08:52:19.127Z,9.33
2018-09-10T08:54:47.802Z,12.27
2018-09-10T08:57:15.852Z,10.00
2018-09-10T08:59:44.208Z,9.87
2018-09-10T09:04:47.068Z,10.40
2018-09-10T09:07:15.309Z,9.93
2018-09-10T09:09:43.633Z,8.30
2018-09-10T09:12:12.169Z,11.17
2018-09-10T09:14:40.413Z,9.57
2018-09-10T09:17:08.666Z,7.93
2018-09-10T09:19:36.920Z,8.77
2018-09-10T09:22:05.187Z,9.93
2018-09-10T09:24:33.427Z,11.40
2018-09-10T09:27:01.685Z,7.90
2018-09-10T09:29:29.932Z,6.93
2018-09-10T09:31:58.202Z,7.23
2018-09-10T09:34:30.772Z,7.67
2018-09-10T09:38:03.254Z,8.87
2018-09-10T09:40:36.946Z,7.37
2018-09-10T09:43:10.812Z,7.87
2018-09-10T09:45:44.632Z,5.13
2018-09-10T09:48:12.871Z,6.60
2018-09-10T09:50:41.108Z,4.63
2018-09-10T09:53:09.366Z,3.93
2018-09-10T09:55:37.616Z,4.53
2018-09-10T09:58:05.894Z,4.63
2018-09-10T10:00:39.629Z,4.63
2018-09-10T10:03:13.468Z,5.73
2018-09-10T10:05:41.715Z,5.83
2018-09-10T10:08:09.988Z,7.47
2018-09-10T10:10:38.684Z,4.57
2018-09-10T10:13:06.913Z,5.30
2018-09-10T10:15:35.356Z,4.87
2018-09-10T10:18:03.675Z,4.13
2018-09-10T10:20:31.928Z,5.00
2018-09-10T10:23:00.187Z,4.77
2018-09-10T10:25:28.485Z,4.13
2018-09-10T10:27:56.794Z,7.50
2018-09-10T10:30:25.396Z,4.33
2018-09-10T10:32:53.635Z,4.10
2018-09-10T10:35:21.867Z,4.20
2018-09-10T10:37:50.120Z,3.13
2018-09-10T10:40:18.445Z,2.57
2018-09-10T10:42:46.791Z,4.67
2018-09-10T10:45:15.027Z,2.43
2018-09-10T10:47:43.302Z,2.90
2018-09-10T10:50:11.561Z,3.00
2018-09-10T10:52:39.823Z,3.90
2018-09-10T10:55:08.124Z,6.03
2018-09-10T10:57:36.360Z,4.77
2018-09-10T11:00:04.692Z,3.20
2018-09-10T11:02:32.978Z,4.20
2018-09-10T11:05:01.593Z,4.00
2018-09-10T11:07:29.836Z,3.80
2018-09-10T11:09:58.092Z,5.37
2018-09-10T11:12:26.321Z,5.37
2018-09-10T11:14:54.709Z,5.77
2018-09-10T11:17:22.973Z,4.13
2018-09-10T11:19:51.212Z,6.10
2018-09-10T11:22:19.537Z,5.80
2018-09-10T11:24:48.517Z,4.53
2018-09-10T11:27:16.770Z,3.98
2018-09-10T11:29:45.031Z,5.55
2018-09-10T11:32:13.343Z,4.08
2018-09-10T11:34:41.924Z,3.58
2018-09-10T11:37:10.173Z,4.30
2018-09-10T11:39:38.490Z,4.12
2018-09-10T11:42:06.796Z,5.53
2018-09-10T11:44:35.124Z,5.45
2018-09-10T11:47:03.703Z,4.12
2018-09-10T11:49:32.083Z,4.70
2018-09-10T11:52:00.332Z,5.85
2018-09-10T11:54:28.605Z,7.45
2018-09-10T11:56:56.850Z,5.12
2018-09-10T11:59:25.141Z,5.87
2018-09-10T12:01:53.394Z,6.92
2018-09-10T12:04:21.694Z,7.75
2018-09-10T12:06:50.005Z,4.17
2018-09-10T12:09:18.231Z,4.70
2018-09-10T12:11:46.473Z,5.78
2018-09-10T12:14:14.721Z,4.70
2018-09-10T12:16:42.973Z,6.33
2018-09-10T12:19:11.293Z,4.25
2018-09-10T12:21:39.583Z,4.85
2018-09-10T12:24:07.844Z,5.08
2018-09-10T12:26:36.107Z,4.90
2018-09-10T12:29:04.364Z,4.62
2018-09-10T12:31:32.622Z,3.55
2018-09-10T12:34:00.874Z,3.75
2018-09-10T12:36:29.126Z,4.20
2018-09-10T12:38:57.353Z,3.55
2018-09-10T12:41:25.673Z,5.90
2018-09-10T12:43:53.914Z,4.20
2018-09-10T12:46:22.217Z,3.40
2018-09-10T12:48:50.429Z,4.67
2018-09-10T12:51:18.671Z,4.35
2018-09-10T12:53:46.943Z,6.28
2018-09-10T12:56:15.179Z,3.77
2018-09-10T12:58:43.471Z,5.97
2018-09-10T13:01:11.751Z,4.95
2018-09-10T13:03:40.009Z,3.10
2018-09-10T13:06:08.300Z,4.00
2018-09-10T13:08:36.556Z,3.90
2018-09-10T13:11:04.814Z,3.85
2018-09-10T13:13:33.041Z,5.15
2018-09-10T13:16:01.275Z,3.95
2018-09-10T13:18:29.695Z,4.22
2018-09-10T13:20:57.940Z,4.42
2018-09-10T13:23:26.539Z,5.08
2018-09-10T13:25:54.803Z,4.87
2018-09-10T13:28:23.126Z,3.30
2018-09-10T13:30:51.420Z,2.80
2018-09-10T13:33:19.720Z,2.92
2018-09-10T13:35:47.998Z,4.42
2018-09-10T13:38:16.265Z,4.62
2018-09-10T13:40:44.569Z,2.90
2018-09-10T13:43:13.000Z,3.90
2018-09-10T13:45:41.505Z,4.90
2018-09-10T13:48:16.206Z,5.22
2018-09-10T13:50:44.488Z,3.20
2018-09-10T13:53:12.733Z,4.72
2018-09-10T13:55:40.988Z,4.05
2018-09-10T13:58:09.394Z,3.02
2018-09-10T14:00:37.685Z,2.72
2018-09-10T14:03:06.059Z,4.80
2018-09-10T14:05:34.285Z,4.95
2018-09-10T14:08:02.553Z,3.33
2018-09-10T14:10:30.806Z,3.50
2018-09-10T14:12:59.156Z,2.70
2018-09-10T14:15:27.442Z,2.73
2018-09-10T14:17:55.700Z,4.07
2018-09-10T14:20:23.911Z,3.10
2018-09-10T14:22:52.147Z,3.50
2018-09-10T14:25:20.465Z,4.80
2018-09-10T14:27:48.686Z,4.13
2018-09-10T14:30:16.894Z,3.00
2018-09-10T14:32:45.124Z,3.70
2018-09-10T14:35:13.380Z,5.83
2018-09-10T14:37:48.055Z,3.53
2018-09-10T14:40:16.279Z,3.23
2018-09-10T14:42:44.487Z,3.47
2018-09-10T14:45:12.703Z,3.97
2018-09-10T14:47:40.899Z,3.30
2018-09-10T14:50:09.143Z,2.57
2018-09-10T14:52:37.435Z,3.20
2018-09-10T14:55:05.687Z,3.80
2018-09-10T14:57:33.882Z,4.00
2018-09-10T15:00:02.126Z,4.53
2018-09-10T15:02:31.351Z,4.77
2018-09-10T15:04:59.580Z,2.87
2018-09-10T15:07:27.813Z,3.97
2018-09-10T15:09:56.055Z,3.70
2018-09-10T15:12:24.301Z,4.27
2018-09-10T15:14:52.560Z,3.70
2018-09-10T15:17:20.805Z,3.37
2018-09-10T15:19:49.204Z,2.93
2018-09-10T15:22:17.409Z,5.20
2018-09-10T15:24:45.646Z,4.23
2018-09-10T15:27:13.919Z,2.57
2018-09-10T15:29:42.958Z,3.93
2018-09-10T15:32:11.258Z,3.97
2018-09-10T15:34:39.543Z,4.60
2018-09-10T15:37:07.824Z,4.80
2018-09-10T15:39:36.126Z,3.97
2018-09-10T15:42:04.375Z,3.53
2018-09-10T15:44:32.609Z,2.33
2018-09-10T15:47:00.830Z,5.07
2018-09-10T15:49:29.127Z,5.03
2018-09-10T15:51:57.408Z,3.33
2018-09-10T15:54:25.652Z,2.13
2018-09-10T15:56:53.918Z,2.63
2018-09-10T15:59:22.178Z,2.47
2018-09-10T16:01:50.395Z,3.73
2018-09-10T16:04:18.690Z,3.13
2018-09-10T16:06:46.936Z,2.70
2018-09-10T16:09:15.158Z,4.53
2018-09-10T16:11:43.580Z,3.60
2018-09-10T16:14:11.787Z,2.17
2018-09-10T16:16:40.145Z,3.40
2018-09-10T16:19:08.403Z,2.37
2018-09-10T16:21:36.639Z,2.37
2018-09-10T16:24:04.877Z,2.70
2018-09-10T16:26:33.096Z,2.20
2018-09-10T16:29:01.362Z,2.67
2018-09-10T16:31:29.588Z,7.53
2018-09-10T16:33:57.888Z,3.83
2018-09-10T16:36:26.088Z,8.20
2018-09-10T16:38:54.295Z,6.47
2018-09-10T16:41:22.627Z,12.37
2018-09-10T16:43:50.832Z,8.77
2018-09-10T16:46:19.028Z,13.47
2018-09-10T16:48:47.276Z,12.53
2018-09-10T16:51:15.464Z,14.53
2018-09-10T16:53:43.651Z,8.57
2018-09-10T16:56:11.856Z,8.07
2018-09-10T16:58:40.108Z,7.00
2018-09-10T17:01:08.331Z,5.07
2018-09-10T17:03:36.535Z,8.10
2018-09-10T17:06:04.740Z,9.67
2018-09-10T17:08:32.924Z,9.43
2018-09-10T17:11:01.155Z,7.67
2018-09-10T17:13:29.335Z,4.57
2018-09-10T17:15:57.524Z,6.83
2018-09-10T17:18:25.719Z,7.57
2018-09-10T17:20:54.034Z,6.10
2018-09-10T17:23:22.267Z,6.77
2018-09-10T17:25:52.070Z,8.07
2018-09-10T17:28:20.702Z,7.70
2018-09-10T17:30:48.925Z,12.67
2018-09-10T17:33:17.231Z,13.17
2018-09-10T17:35:45.608Z,19.83
2018-09-10T17:38:14.093Z,21.00
2018-09-10T17:40:42.716Z,24.67
2018-09-10T17:43:10.971Z,25.97
2018-09-10T17:45:39.317Z,27.80
2018-09-10T17:48:07.780Z,24.53
2018-09-10T17:50:36.035Z,30.93
2018-09-10T17:53:04.483Z,27.93
2018-09-10T17:55:32.673Z,27.00
2018-09-10T17:58:00.866Z,24.80
2018-09-10T18:00:29.103Z,27.00
2018-09-10T18:02:57.320Z,33.30
2018-09-10T18:05:25.539Z,26.47
2018-09-10T18:07:53.767Z,30.07
2018-09-10T18:10:21.961Z,28.00
2018-09-10T18:12:50.209Z,31.57
2018-09-10T18:15:18.418Z,30.53
2018-09-10T18:17:46.627Z,32.53
2018-09-10T18:20:14.843Z,31.60
2018-09-10T18:22:43.044Z,27.27
2018-09-10T18:25:11.296Z,23.53
2018-09-10T18:27:39.503Z,21.77
2018-09-10T18:30:07.744Z,29.33
2018-09-10T18:32:35.955Z,24.30
2018-09-10T18:35:04.226Z,20.93
2018-09-10T18:37:32.502Z,27.87
2018-09-10T18:40:00.684Z,28.63
2018-09-10T18:42:28.875Z,19.33
2018-09-10T18:44:57.125Z,20.90
2018-09-10T18:47:25.427Z,19.57
2018-09-10T18:49:53.671Z,18.00
2018-09-10T18:52:21.868Z,19.73
2018-09-10T18:54:50.063Z,19.97
2018-09-10T18:57:18.498Z,17.33
2018-09-10T18:59:46.692Z,13.40
2018-09-10T19:02:20.380Z,17.83
2018-09-10T19:04:58.859Z,12.80
2018-09-10T19:07:27.153Z,18.53
2018-09-10T19:09:58.873Z,19.33
2018-09-10T19:12:27.305Z,18.50
2018-09-10T19:15:08.581Z,22.03
2018-09-10T19:17:39.637Z,19.27
2018-09-10T19:20:20.099Z,20.80
2018-09-10T19:22:50.618Z,20.30
2018-09-10T19:25:26.102Z,20.33
2018-09-10T19:27:54.593Z,22.47
2018-09-10T19:30:25.072Z,21.97
2018-09-10T19:32:53.458Z,20.70
2018-09-10T19:35:25.327Z,21.07
2018-09-10T19:38:05.960Z,21.10
2018-09-10T19:40:37.298Z,26.23
2018-09-10T19:43:07.473Z,23.27
2018-09-10T19:45:35.818Z,22.10
2018-09-10T19:48:04.461Z,24.27
2018-09-10T19:50:37.518Z,21.07
2018-09-10T19:53:06.212Z,25.33
2018-09-10T19:55:37.536Z,23.40
2018-09-10T19:58:07.531Z,25.27
2018-09-10T20:00:35.836Z,23.37
2018-09-10T20:03:04.304Z,17.83
2018-09-10T20:05:32.567Z,22.73
2018-09-10T20:08:00.994Z,22.93
2018-09-10T20:10:29.336Z,32.00
2018-09-10T20:12:59.261Z,27.63
2018-09-10T20:15:27.617Z,31.40
2018-09-10T20:17:57.097Z,28.73
2018-09-10T20:20:26.085Z,30.50
2018-09-10T20:22:54.459Z,29.17
2018-09-10T20:25:22.681Z,26.57
2018-09-10T20:27:50.940Z,26.80
2018-09-10T20:37:28.135Z,21.33
2018-09-10T20:39:56.407Z,21.07
2018-09-10T20:42:24.659Z,23.07
2018-09-10T20:44:52.955Z,20.97
2018-09-10T20:47:21.218Z,24.63
2018-09-10T20:49:49.459Z,19.60
2018-09-10T20:52:17.936Z,18.70
2018-09-10T20:54:46.162Z,23.73
2018-09-10T20:57:14.487Z,24.77
2018-09-10T20:59:42.754Z,19.57
2018-09-10T21:02:10.997Z,22.30
2018-09-10T21:04:39.262Z,22.03
2018-09-10T21:07:07.516Z,27.33
2018-09-10T21:09:35.824Z,25.03
2018-09-10T21:12:04.145Z,28.63
2018-09-10T21:14:32.390Z,23.37
2018-09-10T21:17:00.642Z,21.13
2018-09-10T21:19:28.901Z,23.77
2018-09-10T21:21:57.200Z,19.90
2018-09-10T21:24:25.456Z,20.40
2018-09-10T21:26:53.706Z,21.23
2018-09-10T21:29:21.941Z,21.50
2018-09-10T21:31:50.188Z,16.70
2018-09-10T21:34:18.470Z,14.80
2018-09-10T21:36:46.689Z,16.57
2018-09-10T21:39:14.944Z,18.60
2018-09-10T21:41:43.207Z,19.80
2018-09-10T21:46:45.960Z,16.57
2018-09-10T21:49:14.189Z,18.67
2018-09-10T21:51:42.435Z,17.20
2018-09-10T21:54:10.673Z,14.97
2018-09-10T21:56:39.032Z,24.73
2018-09-10T21:59:07.342Z,16.70
2018-09-10T22:01:35.592Z,22.53
2018-09-10T22:04:03.844Z,16.70
2018-09-10T22:06:32.056Z,17.13
2018-09-10T22:09:00.376Z,20.03
2018-09-10T22:11:28.762Z,17.23
2018-09-10T22:13:56.973Z,21.33
2018-09-10T22:16:25.207Z,17.87
2018-09-10T22:18:53.449Z,17.03
2018-09-10T22:21:21.698Z,15.67
2018-09-10T22:23:50.043Z,21.77
2018-09-10T22:26:18.300Z,21.30
2018-09-10T22:28:46.541Z,21.47
2018-09-10T22:31:14.775Z,13.63
2018-09-10T22:33:43.019Z,18.67
2018-09-10T22:36:11.291Z,19.27
2018-09-10T22:38:39.521Z,12.67
2018-09-10T22:41:07.748Z,16.30
2018-09-10T22:43:36.005Z,15.90
2018-09-10T22:46:04.242Z,19.10
2018-09-10T22:48:32.521Z,20.20
2018-09-10T22:51:00.746Z,20.20
2018-09-10T22:53:28.995Z,20.60
2018-09-10T22:55:57.234Z,18.23
2018-09-10T22:58:25.459Z,18.80
2018-09-10T23:00:53.730Z,14.60
2018-09-10T23:03:21.982Z,17.10
2018-09-10T23:05:50.229Z,20.97
2018-09-10T23:08:18.500Z,17.37
2018-09-10T23:10:46.765Z,16.70
2018-09-10T23:13:15.049Z,15.67
2018-09-10T23:15:43.311Z,19.70
2018-09-10T23:18:11.556Z,20.57
2018-09-10T23:20:39.775Z,21.33
2018-09-10T23:23:08.035Z,19.63
2018-09-10T23:25:36.338Z,21.27
2018-09-10T23:28:04.557Z,20.43
2018-09-10T23:30:32.854Z,24.40
2018-09-10T23:33:01.123Z,17.70
2018-09-10T23:35:29.367Z,15.50
2018-09-10T23:37:57.631Z,17.50
2018-09-10T23:40:25.872Z,16.83
2018-09-10T23:42:54.133Z,14.30
2018-09-10T23:45:22.387Z,20.80
2018-09-10T23:47:50.642Z,21.17
2018-09-10T23:50:18.935Z,23.23
2018-09-10T23:52:47.217Z,16.33
2018-09-10T23:55:15.476Z,17.40
2018-09-10T23:57:43.726Z,20.03
